sensor_id;sensor_type;location;lat;lon;timestamp;P1;durP1;ratioP1;P2;durP2;ratioP2
67819;SDS011;54618;52.018;5.576;2023-02-28T00:00:27;4.45;;;1.80;;
67819;SDS011;54618;52.018;5.576;2023-02-28T00:02:53;4.60;;;2.00;;
67819;SDS011;54618;52.018;5.576;2023-02-28T00:05:20;4.13;;;1.63;;
67819;SDS011;54618;52.018;5.576;2023-02-28T00:07:47;3.70;;;1.52;;
67819;SDS011;54618;52.018;5.576;2023-02-28T00:10:16;5.57;;;1.80;;
67819;SDS011;54618;52.018;5.576;2023-02-28T00:12:53;5.28;;;1.98;;
67819;SDS011;54618;52.018;5.576;2023-02-28T00:15:23;4.55;;;1.73;;
67819;SDS011;54618;52.018;5.576;2023-02-28T00:17:49;3.08;;;1.60;;
67819;SDS011;54618;52.018;5.576;2023-02-28T00:20:15;4.47;;;1.80;;
67819;SDS011;54618;52.018;5.576;2023-02-28T00:22:42;4.47;;;1.70;;
67819;SDS011;54618;52.018;5.576;2023-02-28T00:25:10;4.30;;;1.90;;
67819;SDS011;54618;52.018;5.576;2023-02-28T00:27:38;4.30;;;1.77;;
67819;SDS011;54618;52.018;5.576;2023-02-28T00:30:04;5.13;;;1.73;;
67819;SDS011;54618;52.018;5.576;2023-02-28T00:32:31;4.30;;;1.75;;
67819;SDS011;54618;52.018;5.576;2023-02-28T00:34:57;3.30;;;1.70;;
67819;SDS011;54618;52.018;5.576;2023-02-28T00:37:22;5.18;;;1.63;;
67819;SDS011;54618;52.018;5.576;2023-02-28T00:39:48;3.80;;;1.60;;
67819;SDS011;54618;52.018;5.576;2023-02-28T00:42:13;5.53;;;1.58;;
67819;SDS011;54618;52.018;5.576;2023-02-28T00:44:39;3.75;;;1.67;;
67819;SDS011;54618;52.018;5.576;2023-02-28T00:47:05;3.55;;;1.50;;
67819;SDS011;54618;52.018;5.576;2023-02-28T00:49:31;4.93;;;1.63;;
67819;SDS011;54618;52.018;5.576;2023-02-28T00:51:56;3.75;;;1.80;;
67819;SDS011;54618;52.018;5.576;2023-02-28T00:54:22;5.00;;;1.98;;
67819;SDS011;54618;52.018;5.576;2023-02-28T00:56:48;4.10;;;1.70;;
67819;SDS011;54618;52.018;5.576;2023-02-28T00:59:14;2.97;;;1.50;;
67819;SDS011;54618;52.018;5.576;2023-02-28T01:01:42;4.93;;;1.65;;
67819;SDS011;54618;52.018;5.576;2023-02-28T01:04:08;4.53;;;1.60;;
67819;SDS011;54618;52.018;5.576;2023-02-28T01:06:34;4.57;;;1.40;;
67819;SDS011;54618;52.018;5.576;2023-02-28T01:09:00;5.00;;;1.38;;
67819;SDS011;54618;52.018;5.576;2023-02-28T01:11:26;3.72;;;1.63;;
67819;SDS011;54618;52.018;5.576;2023-02-28T01:13:52;3.63;;;1.50;;
67819;SDS011;54618;52.018;5.576;2023-02-28T01:16:17;3.90;;;1.80;;
67819;SDS011;54618;52.018;5.576;2023-02-28T01:18:43;4.03;;;1.50;;
67819;SDS011;54618;52.018;5.576;2023-02-28T01:21:10;3.47;;;1.63;;
67819;SDS011;54618;52.018;5.576;2023-02-28T01:23:38;4.47;;;1.80;;
67819;SDS011;54618;52.018;5.576;2023-02-28T01:26:09;3.05;;;1.50;;
67819;SDS011;54618;52.018;5.576;2023-02-28T01:28:37;2.65;;;1.30;;
67819;SDS011;54618;52.018;5.576;2023-02-28T01:31:02;3.13;;;1.55;;
67819;SDS011;54618;52.018;5.576;2023-02-28T01:33:28;3.95;;;1.60;;
67819;SDS011;54618;52.018;5.576;2023-02-28T01:35:59;5.20;;;1.60;;
67819;SDS011;54618;52.018;5.576;2023-02-28T01:38:26;3.38;;;1.48;;
67819;SDS011;54618;52.018;5.576;2023-02-28T01:40:51;3.70;;;1.45;;
67819;SDS011;54618;52.018;5.576;2023-02-28T01:43:22;4.65;;;1.50;;
67819;SDS011;54618;52.018;5.576;2023-02-28T01:45:49;3.25;;;1.48;;
67819;SDS011;54618;52.018;5.576;2023-02-28T01:48:15;3.30;;;1.60;;
67819;SDS011;54618;52.018;5.576;2023-02-28T01:50:41;3.15;;;1.58;;
67819;SDS011;54618;52.018;5.576;2023-02-28T01:53:10;2.72;;;1.30;;
67819;SDS011;54618;52.018;5.576;2023-02-28T01:55:39;3.40;;;1.50;;
67819;SDS011;54618;52.018;5.576;2023-02-28T01:58:07;4.22;;;1.40;;
67819;SDS011;54618;52.018;5.576;2023-02-28T02:00:34;3.13;;;1.52;;
67819;SDS011;54618;52.018;5.576;2023-02-28T02:03:03;4.30;;;1.50;;
67819;SDS011;54618;52.018;5.576;2023-02-28T02:05:33;3.45;;;1.67;;
67819;SDS011;54618;52.018;5.576;2023-02-28T02:08:03;3.95;;;1.40;;
67819;SDS011;54618;52.018;5.576;2023-02-28T02:10:35;2.85;;;1.42;;
67819;SDS011;54618;52.018;5.576;2023-02-28T02:18:31;3.15;;;1.40;;
67819;SDS011;54618;52.018;5.576;2023-02-28T02:34:57;3.78;;;1.42;;
67819;SDS011;54618;52.018;5.576;2023-02-28T02:40:23;3.45;;;1.45;;
67819;SDS011;54618;52.018;5.576;2023-02-28T02:42:59;3.60;;;1.42;;
67819;SDS011;54618;52.018;5.576;2023-02-28T02:45:37;3.40;;;1.52;;
67819;SDS011;54618;52.018;5.576;2023-02-28T02:48:11;3.28;;;1.38;;
67819;SDS011;54618;52.018;5.576;2023-02-28T02:50:45;3.60;;;1.30;;
67819;SDS011;54618;52.018;5.576;2023-02-28T02:53:14;2.50;;;1.20;;
67819;SDS011;54618;52.018;5.576;2023-02-28T02:55:46;3.65;;;1.40;;
67819;SDS011;54618;52.018;5.576;2023-02-28T02:58:20;3.90;;;1.30;;
67819;SDS011;54618;52.018;5.576;2023-02-28T03:00:51;2.95;;;1.30;;
67819;SDS011;54618;52.018;5.576;2023-02-28T03:03:20;3.33;;;1.17;;
67819;SDS011;54618;52.018;5.576;2023-02-28T03:05:54;2.15;;;1.20;;
67819;SDS011;54618;52.018;5.576;2023-02-28T03:08:21;2.72;;;1.40;;
67819;SDS011;54618;52.018;5.576;2023-02-28T03:10:51;2.10;;;1.23;;
67819;SDS011;54618;52.018;5.576;2023-02-28T03:27:17;2.55;;;1.17;;
67819;SDS011;54618;52.018;5.576;2023-02-28T03:30:05;2.08;;;1.02;;
67819;SDS011;54618;52.018;5.576;2023-02-28T03:32:36;2.42;;;1.10;;
67819;SDS011;54618;52.018;5.576;2023-02-28T03:35:25;2.90;;;1.20;;
67819;SDS011;54618;52.018;5.576;2023-02-28T03:38:09;1.98;;;0.98;;
67819;SDS011;54618;52.018;5.576;2023-02-28T03:40:56;1.83;;;1.00;;
67819;SDS011;54618;52.018;5.576;2023-02-28T03:43:53;2.35;;;1.00;;
67819;SDS011;54618;52.018;5.576;2023-02-28T03:46:23;1.83;;;0.98;;
67819;SDS011;54618;52.018;5.576;2023-02-28T03:49:00;1.75;;;1.00;;
67819;SDS011;54618;52.018;5.576;2023-02-28T03:51:38;2.75;;;1.05;;
67819;SDS011;54618;52.018;5.576;2023-02-28T03:54:10;1.98;;;1.00;;
67819;SDS011;54618;52.018;5.576;2023-02-28T03:56:42;2.90;;;1.10;;
67819;SDS011;54618;52.018;5.576;2023-02-28T03:59:13;2.25;;;1.08;;
67819;SDS011;54618;52.018;5.576;2023-02-28T04:01:58;2.47;;;1.20;;
67819;SDS011;54618;52.018;5.576;2023-02-28T04:04:25;2.08;;;0.90;;
67819;SDS011;54618;52.018;5.576;2023-02-28T04:06:51;2.50;;;1.10;;
67819;SDS011;54618;52.018;5.576;2023-02-28T04:09:17;1.48;;;0.80;;
67819;SDS011;54618;52.018;5.576;2023-02-28T04:11:49;1.88;;;0.98;;
67819;SDS011;54618;52.018;5.576;2023-02-28T04:14:16;2.20;;;1.00;;
67819;SDS011;54618;52.018;5.576;2023-02-28T04:16:42;2.53;;;1.00;;
67819;SDS011;54618;52.018;5.576;2023-02-28T04:19:09;1.88;;;1.00;;
67819;SDS011;54618;52.018;5.576;2023-02-28T04:21:40;2.35;;;1.20;;
67819;SDS011;54618;52.018;5.576;2023-02-28T04:24:07;2.22;;;1.00;;
67819;SDS011;54618;52.018;5.576;2023-02-28T04:26:38;2.35;;;0.98;;
67819;SDS011;54618;52.018;5.576;2023-02-28T04:29:05;2.80;;;1.15;;
67819;SDS011;54618;52.018;5.576;2023-02-28T04:31:32;1.90;;;1.10;;
67819;SDS011;54618;52.018;5.576;2023-02-28T04:33:58;2.38;;;1.15;;
67819;SDS011;54618;52.018;5.576;2023-02-28T04:36:24;1.83;;;1.10;;
67819;SDS011;54618;52.018;5.576;2023-02-28T04:38:50;1.65;;;1.00;;
67819;SDS011;54618;52.018;5.576;2023-02-28T04:41:16;2.28;;;0.98;;
67819;SDS011;54618;52.018;5.576;2023-02-28T04:43:42;2.63;;;1.00;;
67819;SDS011;54618;52.018;5.576;2023-02-28T04:46:08;2.10;;;1.02;;
67819;SDS011;54618;52.018;5.576;2023-02-28T04:48:34;2.60;;;1.00;;
67819;SDS011;54618;52.018;5.576;2023-02-28T04:51:02;2.00;;;1.00;;
67819;SDS011;54618;52.018;5.576;2023-02-28T04:53:29;1.88;;;0.95;;
67819;SDS011;54618;52.018;5.576;2023-02-28T04:55:56;2.75;;;0.95;;
67819;SDS011;54618;52.018;5.576;2023-02-28T04:58:21;2.00;;;0.90;;
67819;SDS011;54618;52.018;5.576;2023-02-28T05:00:48;2.22;;;1.00;;
67819;SDS011;54618;52.018;5.576;2023-02-28T05:03:14;1.67;;;0.80;;
67819;SDS011;54618;52.018;5.576;2023-02-28T05:05:40;1.55;;;0.90;;
67819;SDS011;54618;52.018;5.576;2023-02-28T05:08:05;2.15;;;0.90;;
67819;SDS011;54618;52.018;5.576;2023-02-28T05:10:31;1.55;;;0.80;;
67819;SDS011;54618;52.018;5.576;2023-02-28T05:12:57;2.90;;;1.20;;
67819;SDS011;54618;52.018;5.576;2023-02-28T05:15:22;1.30;;;0.88;;
67819;SDS011;54618;52.018;5.576;2023-02-28T05:17:48;1.80;;;0.85;;
67819;SDS011;54618;52.018;5.576;2023-02-28T05:20:14;2.40;;;1.00;;
67819;SDS011;54618;52.018;5.576;2023-02-28T05:22:40;1.90;;;0.95;;
67819;SDS011;54618;52.018;5.576;2023-02-28T05:25:06;1.30;;;0.82;;
67819;SDS011;54618;52.018;5.576;2023-02-28T05:27:34;1.85;;;0.90;;
67819;SDS011;54618;52.018;5.576;2023-02-28T05:30:00;1.70;;;0.70;;
67819;SDS011;54618;52.018;5.576;2023-02-28T05:32:28;1.70;;;0.90;;
67819;SDS011;54618;52.018;5.576;2023-02-28T05:34:53;2.38;;;0.80;;
67819;SDS011;54618;52.018;5.576;2023-02-28T05:37:19;1.95;;;0.80;;
67819;SDS011;54618;52.018;5.576;2023-02-28T05:39:45;1.90;;;0.90;;
67819;SDS011;54618;52.018;5.576;2023-02-28T05:42:10;1.92;;;1.00;;
67819;SDS011;54618;52.018;5.576;2023-02-28T05:44:36;1.50;;;0.80;;
67819;SDS011;54618;52.018;5.576;2023-02-28T05:47:01;1.50;;;0.70;;
67819;SDS011;54618;52.018;5.576;2023-02-28T05:49:27;2.25;;;0.90;;
67819;SDS011;54618;52.018;5.576;2023-02-28T05:51:53;1.60;;;0.73;;
67819;SDS011;54618;52.018;5.576;2023-02-28T05:54:18;2.22;;;1.00;;
67819;SDS011;54618;52.018;5.576;2023-02-28T05:56:44;1.88;;;0.80;;
67819;SDS011;54618;52.018;5.576;2023-02-28T05:59:10;1.10;;;0.70;;
67819;SDS011;54618;52.018;5.576;2023-02-28T06:01:41;1.73;;;0.70;;
67819;SDS011;54618;52.018;5.576;2023-02-28T06:04:13;1.70;;;0.80;;
67819;SDS011;54618;52.018;5.576;2023-02-28T06:06:43;1.75;;;0.70;;
67819;SDS011;54618;52.018;5.576;2023-02-28T06:09:09;1.50;;;0.70;;
67819;SDS011;54618;52.018;5.576;2023-02-28T06:11:35;1.70;;;0.90;;
67819;SDS011;54618;52.018;5.576;2023-02-28T06:14:01;1.58;;;0.70;;
67819;SDS011;54618;52.018;5.576;2023-02-28T06:16:28;1.45;;;0.80;;
67819;SDS011;54618;52.018;5.576;2023-02-28T06:18:56;1.85;;;0.90;;
67819;SDS011;54618;52.018;5.576;2023-02-28T06:21:22;1.00;;;0.70;;
67819;SDS011;54618;52.018;5.576;2023-02-28T06:23:48;1.50;;;0.90;;
67819;SDS011;54618;52.018;5.576;2023-02-28T06:26:14;2.28;;;1.10;;
67819;SDS011;54618;52.018;5.576;2023-02-28T06:28:40;2.67;;;0.90;;
67819;SDS011;54618;52.018;5.576;2023-02-28T06:31:10;1.52;;;0.93;;
67819;SDS011;54618;52.018;5.576;2023-02-28T06:33:37;1.48;;;0.82;;
67819;SDS011;54618;52.018;5.576;2023-02-28T06:36:04;1.48;;;0.75;;
67819;SDS011;54618;52.018;5.576;2023-02-28T06:38:31;1.33;;;0.80;;
67819;SDS011;54618;52.018;5.576;2023-02-28T06:40:58;1.33;;;0.75;;
67819;SDS011;54618;52.018;5.576;2023-02-28T06:43:25;1.35;;;0.80;;
67819;SDS011;54618;52.018;5.576;2023-02-28T06:45:57;1.30;;;0.80;;
67819;SDS011;54618;52.018;5.576;2023-02-28T06:48:23;1.08;;;0.60;;
67819;SDS011;54618;52.018;5.576;2023-02-28T06:50:49;1.42;;;0.80;;
67819;SDS011;54618;52.018;5.576;2023-02-28T06:53:15;1.38;;;0.70;;
67819;SDS011;54618;52.018;5.576;2023-02-28T06:55:40;1.48;;;0.70;;
67819;SDS011;54618;52.018;5.576;2023-02-28T06:58:06;1.83;;;0.80;;
67819;SDS011;54618;52.018;5.576;2023-02-28T07:00:44;1.38;;;0.80;;
67819;SDS011;54618;52.018;5.576;2023-02-28T07:03:11;1.60;;;0.70;;
67819;SDS011;54618;52.018;5.576;2023-02-28T07:05:37;1.55;;;0.70;;
67819;SDS011;54618;52.018;5.576;2023-02-28T07:08:03;1.20;;;0.70;;
67819;SDS011;54618;52.018;5.576;2023-02-28T07:10:33;0.93;;;0.60;;
67819;SDS011;54618;52.018;5.576;2023-02-28T07:12:59;1.30;;;0.80;;
67819;SDS011;54618;52.018;5.576;2023-02-28T07:15:26;1.10;;;0.70;;
67819;SDS011;54618;52.018;5.576;2023-02-28T07:17:52;1.20;;;0.80;;
67819;SDS011;54618;52.018;5.576;2023-02-28T07:20:17;1.50;;;0.70;;
67819;SDS011;54618;52.018;5.576;2023-02-28T07:22:43;0.93;;;0.57;;
67819;SDS011;54618;52.018;5.576;2023-02-28T07:25:09;1.63;;;0.80;;
67819;SDS011;54618;52.018;5.576;2023-02-28T07:27:34;1.50;;;0.80;;
67819;SDS011;54618;52.018;5.576;2023-02-28T07:30:00;0.93;;;0.65;;
67819;SDS011;54618;52.018;5.576;2023-02-28T07:32:28;0.88;;;0.60;;
67819;SDS011;54618;52.018;5.576;2023-02-28T07:34:54;1.27;;;0.70;;
67819;SDS011;54618;52.018;5.576;2023-02-28T07:37:20;1.23;;;0.60;;
67819;SDS011;54618;52.018;5.576;2023-02-28T07:39:45;0.88;;;0.65;;
67819;SDS011;54618;52.018;5.576;2023-02-28T07:42:11;1.20;;;0.77;;
67819;SDS011;54618;52.018;5.576;2023-02-28T07:44:40;1.35;;;0.80;;
67819;SDS011;54618;52.018;5.576;2023-02-28T07:47:08;1.33;;;0.70;;
67819;SDS011;54618;52.018;5.576;2023-02-28T07:49:36;1.42;;;0.80;;
67819;SDS011;54618;52.018;5.576;2023-02-28T07:52:03;1.30;;;0.70;;
67819;SDS011;54618;52.018;5.576;2023-02-28T07:54:30;1.13;;;0.60;;
67819;SDS011;54618;52.018;5.576;2023-02-28T07:56:56;1.20;;;0.70;;
67819;SDS011;54618;52.018;5.576;2023-02-28T07:59:22;1.45;;;0.70;;
67819;SDS011;54618;52.018;5.576;2023-02-28T08:01:47;0.82;;;0.60;;
67819;SDS011;54618;52.018;5.576;2023-02-28T08:04:15;1.02;;;0.60;;
67819;SDS011;54618;52.018;5.576;2023-02-28T08:06:43;0.70;;;0.50;;
67819;SDS011;54618;52.018;5.576;2023-02-28T08:09:09;0.90;;;0.57;;
67819;SDS011;54618;52.018;5.576;2023-02-28T08:11:34;1.58;;;0.70;;
67819;SDS011;54618;52.018;5.576;2023-02-28T08:14:01;1.30;;;0.60;;
67819;SDS011;54618;52.018;5.576;2023-02-28T08:16:27;1.27;;;0.70;;
67819;SDS011;54618;52.018;5.576;2023-02-28T08:18:52;1.98;;;0.70;;
67819;SDS011;54618;52.018;5.576;2023-02-28T08:21:18;3.53;;;0.60;;
67819;SDS011;54618;52.018;5.576;2023-02-28T08:23:46;1.08;;;0.68;;
67819;SDS011;54618;52.018;5.576;2023-02-28T08:26:13;19.02;;;11.10;;
67819;SDS011;54618;52.018;5.576;2023-02-28T08:28:39;91.95;;;55.30;;
67819;SDS011;54618;52.018;5.576;2023-02-28T08:31:09;107.75;;;65.40;;
67819;SDS011;54618;52.018;5.576;2023-02-28T08:33:36;99.68;;;61.72;;
67819;SDS011;54618;52.018;5.576;2023-02-28T08:36:01;87.60;;;55.40;;
67819;SDS011;54618;52.018;5.576;2023-02-28T08:38:27;87.10;;;53.03;;
67819;SDS011;54618;52.018;5.576;2023-02-28T08:40:59;80.13;;;49.97;;
67819;SDS011;54618;52.018;5.576;2023-02-28T08:43:27;79.50;;;49.28;;
67819;SDS011;54618;52.018;5.576;2023-02-28T08:45:53;73.63;;;46.40;;
67819;SDS011;54618;52.018;5.576;2023-02-28T08:48:21;73.88;;;46.70;;
67819;SDS011;54618;52.018;5.576;2023-02-28T08:50:54;67.70;;;44.70;;
67819;SDS011;54618;52.018;5.576;2023-02-28T08:53:21;74.07;;;42.88;;
67819;SDS011;54618;52.018;5.576;2023-02-28T08:55:46;64.60;;;41.35;;
67819;SDS011;54618;52.018;5.576;2023-02-28T08:58:12;63.85;;;40.97;;
67819;SDS011;54618;52.018;5.576;2023-02-28T09:00:37;64.93;;;40.20;;
67819;SDS011;54618;52.018;5.576;2023-02-28T09:03:03;59.78;;;38.90;;
67819;SDS011;54618;52.018;5.576;2023-02-28T09:05:28;61.33;;;38.53;;
67819;SDS011;54618;52.018;5.576;2023-02-28T09:07:54;57.25;;;36.53;;
67819;SDS011;54618;52.018;5.576;2023-02-28T09:10:20;56.15;;;35.10;;
67819;SDS011;54618;52.018;5.576;2023-02-28T09:12:45;53.60;;;34.58;;
67819;SDS011;54618;52.018;5.576;2023-02-28T09:15:12;52.22;;;33.35;;
67819;SDS011;54618;52.018;5.576;2023-02-28T09:17:37;50.15;;;32.75;;
67819;SDS011;54618;52.018;5.576;2023-02-28T09:20:03;50.53;;;31.50;;
67819;SDS011;54618;52.018;5.576;2023-02-28T09:22:30;44.83;;;29.23;;
67819;SDS011;54618;52.018;5.576;2023-02-28T09:24:57;46.13;;;29.00;;
67819;SDS011;54618;52.018;5.576;2023-02-28T09:27:22;42.97;;;27.42;;
67819;SDS011;54618;52.018;5.576;2023-02-28T09:29:48;45.17;;;27.90;;
67819;SDS011;54618;52.018;5.576;2023-02-28T09:32:14;41.85;;;25.60;;
67819;SDS011;54618;52.018;5.576;2023-02-28T09:34:39;38.90;;;24.42;;
67819;SDS011;54618;52.018;5.576;2023-02-28T09:37:05;40.72;;;24.55;;
67819;SDS011;54618;52.018;5.576;2023-02-28T09:39:34;38.40;;;24.35;;
67819;SDS011;54618;52.018;5.576;2023-02-28T09:42:00;35.50;;;23.52;;
67819;SDS011;54618;52.018;5.576;2023-02-28T09:47:01;23.70;;;15.02;;
67819;SDS011;54618;52.018;5.576;2023-02-28T09:49:51;25.23;;;15.70;;
67819;SDS011;54618;52.018;5.576;2023-02-28T09:52:17;27.95;;;17.85;;
67819;SDS011;54618;52.018;5.576;2023-02-28T09:54:46;24.00;;;15.70;;
67819;SDS011;54618;52.018;5.576;2023-02-28T10:02:12;24.75;;;15.32;;
67819;SDS011;54618;52.018;5.576;2023-02-28T10:04:50;23.75;;;14.82;;
67819;SDS011;54618;52.018;5.576;2023-02-28T10:07:35;24.15;;;15.30;;
67819;SDS011;54618;52.018;5.576;2023-02-28T10:10:21;23.33;;;14.43;;
67819;SDS011;54618;52.018;5.576;2023-02-28T10:12:53;22.42;;;14.15;;
67819;SDS011;54618;52.018;5.576;2023-02-28T10:15:22;21.45;;;13.85;;
67819;SDS011;54618;52.018;5.576;2023-02-28T10:17:51;25.00;;;14.23;;
67819;SDS011;54618;52.018;5.576;2023-02-28T10:20:21;22.88;;;13.70;;
67819;SDS011;54618;52.018;5.576;2023-02-28T10:26:22;21.95;;;13.40;;
67819;SDS011;54618;52.018;5.576;2023-02-28T10:28:53;20.75;;;12.93;;
67819;SDS011;54618;52.018;5.576;2023-02-28T10:31:19;20.25;;;12.60;;
67819;SDS011;54618;52.018;5.576;2023-02-28T10:33:45;22.10;;;13.40;;
67819;SDS011;54618;52.018;5.576;2023-02-28T10:36:14;22.02;;;12.75;;
67819;SDS011;54618;52.018;5.576;2023-02-28T10:38:42;21.40;;;12.77;;
67819;SDS011;54618;52.018;5.576;2023-02-28T10:41:16;19.52;;;12.50;;
67819;SDS011;54618;52.018;5.576;2023-02-28T10:43:53;20.08;;;12.55;;
67819;SDS011;54618;52.018;5.576;2023-02-28T10:46:45;18.35;;;11.15;;
67819;SDS011;54618;52.018;5.576;2023-02-28T10:49:19;18.08;;;11.95;;
67819;SDS011;54618;52.018;5.576;2023-02-28T10:51:47;16.63;;;11.02;;
67819;SDS011;54618;52.018;5.576;2023-02-28T10:54:19;17.02;;;11.10;;
67819;SDS011;54618;52.018;5.576;2023-02-28T10:59:33;17.85;;;10.80;;
67819;SDS011;54618;52.018;5.576;2023-02-28T11:01:58;16.70;;;10.75;;
67819;SDS011;54618;52.018;5.576;2023-02-28T11:11:55;17.55;;;10.10;;
67819;SDS011;54618;52.018;5.576;2023-02-28T11:14:22;14.90;;;9.38;;
67819;SDS011;54618;52.018;5.576;2023-02-28T11:16:51;14.70;;;9.32;;
67819;SDS011;54618;52.018;5.576;2023-02-28T11:19:25;16.27;;;9.23;;
67819;SDS011;54618;52.018;5.576;2023-02-28T11:21:59;14.25;;;9.05;;
67819;SDS011;54618;52.018;5.576;2023-02-28T11:24:28;13.65;;;8.73;;
67819;SDS011;54618;52.018;5.576;2023-02-28T11:27:25;14.02;;;8.57;;
67819;SDS011;54618;52.018;5.576;2023-02-28T11:29:57;14.95;;;8.82;;
67819;SDS011;54618;52.018;5.576;2023-02-28T11:32:24;14.05;;;8.10;;
67819;SDS011;54618;52.018;5.576;2023-02-28T11:35:04;12.87;;;8.17;;
67819;SDS011;54618;52.018;5.576;2023-02-28T11:37:41;11.98;;;7.85;;
67819;SDS011;54618;52.018;5.576;2023-02-28T11:40:18;13.00;;;8.00;;
67819;SDS011;54618;52.018;5.576;2023-02-28T11:43:06;13.85;;;7.90;;
67819;SDS011;54618;52.018;5.576;2023-02-28T11:45:57;11.30;;;7.50;;
67819;SDS011;54618;52.018;5.576;2023-02-28T11:48:47;13.02;;;7.43;;
67819;SDS011;54618;52.018;5.576;2023-02-28T11:51:50;10.60;;;6.80;;
67819;SDS011;54618;52.018;5.576;2023-02-28T11:54:27;12.63;;;7.45;;
67819;SDS011;54618;52.018;5.576;2023-02-28T12:03:06;11.68;;;7.03;;
67819;SDS011;54618;52.018;5.576;2023-02-28T12:11:16;8.68;;;5.97;;
67819;SDS011;54618;52.018;5.576;2023-02-28T12:16:50;10.43;;;6.22;;
67819;SDS011;54618;52.018;5.576;2023-02-28T12:27:39;9.50;;;5.50;;
67819;SDS011;54618;52.018;5.576;2023-02-28T12:35:33;8.63;;;5.32;;
67819;SDS011;54618;52.018;5.576;2023-02-28T12:38:47;8.73;;;5.43;;
67819;SDS011;54618;52.018;5.576;2023-02-28T12:41:03;9.53;;;5.43;;
67819;SDS011;54618;52.018;5.576;2023-02-28T12:43:43;8.00;;;5.07;;
67819;SDS011;54618;52.018;5.576;2023-02-28T12:46:14;7.75;;;4.85;;
67819;SDS011;54618;52.018;5.576;2023-02-28T12:51:11;7.55;;;4.50;;
67819;SDS011;54618;52.018;5.576;2023-02-28T13:08:20;7.30;;;4.35;;
67819;SDS011;54618;52.018;5.576;2023-02-28T13:11:06;7.80;;;4.30;;
67819;SDS011;54618;52.018;5.576;2023-02-28T13:13:32;7.10;;;4.47;;
67819;SDS011;54618;52.018;5.576;2023-02-28T13:15:59;6.75;;;4.00;;
67819;SDS011;54618;52.018;5.576;2023-02-28T13:18:31;7.43;;;4.22;;
67819;SDS011;54618;52.018;5.576;2023-02-28T13:21:02;6.97;;;3.83;;
67819;SDS011;54618;52.018;5.576;2023-02-28T13:26:20;6.18;;;4.00;;
67819;SDS011;54618;52.018;5.576;2023-02-28T13:31:26;6.38;;;3.70;;
67819;SDS011;54618;52.018;5.576;2023-02-28T13:36:28;7.35;;;4.10;;
67819;SDS011;54618;52.018;5.576;2023-02-28T13:39:00;5.88;;;3.60;;
67819;SDS011;54618;52.018;5.576;2023-02-28T13:46:36;6.13;;;3.47;;
67819;SDS011;54618;52.018;5.576;2023-02-28T13:51:52;6.07;;;3.53;;
67819;SDS011;54618;52.018;5.576;2023-02-28T14:02:49;5.88;;;3.45;;
67819;SDS011;54618;52.018;5.576;2023-02-28T14:05:19;5.53;;;3.45;;
67819;SDS011;54618;52.018;5.576;2023-02-28T14:07:54;5.93;;;3.40;;
67819;SDS011;54618;52.018;5.576;2023-02-28T14:13:02;6.75;;;3.28;;
67819;SDS011;54618;52.018;5.576;2023-02-28T14:15:47;5.55;;;2.83;;
67819;SDS011;54618;52.018;5.576;2023-02-28T14:18:30;4.18;;;3.15;;
67819;SDS011;54618;52.018;5.576;2023-02-28T14:21:12;4.05;;;2.65;;
67819;SDS011;54618;52.018;5.576;2023-02-28T14:32:05;4.75;;;2.72;;
67819;SDS011;54618;52.018;5.576;2023-02-28T14:34:51;4.95;;;2.97;;
67819;SDS011;54618;52.018;5.576;2023-02-28T14:37:23;5.20;;;2.72;;
67819;SDS011;54618;52.018;5.576;2023-02-28T14:39:55;4.53;;;2.65;;
67819;SDS011;54618;52.018;5.576;2023-02-28T14:42:39;5.47;;;2.50;;
67819;SDS011;54618;52.018;5.576;2023-02-28T14:45:21;4.57;;;2.43;;
67819;SDS011;54618;52.018;5.576;2023-02-28T14:47:49;5.05;;;2.38;;
67819;SDS011;54618;52.018;5.576;2023-02-28T14:50:20;5.55;;;2.63;;
67819;SDS011;54618;52.018;5.576;2023-02-28T14:52:50;4.53;;;2.45;;
67819;SDS011;54618;52.018;5.576;2023-02-28T14:55:18;6.00;;;2.47;;
67819;SDS011;54618;52.018;5.576;2023-02-28T14:57:58;4.80;;;2.35;;
67819;SDS011;54618;52.018;5.576;2023-02-28T15:00:30;5.47;;;2.60;;
67819;SDS011;54618;52.018;5.576;2023-02-28T15:02:58;5.22;;;2.90;;
67819;SDS011;54618;52.018;5.576;2023-02-28T15:05:29;4.50;;;2.40;;
67819;SDS011;54618;52.018;5.576;2023-02-28T15:08:09;4.43;;;2.30;;
67819;SDS011;54618;52.018;5.576;2023-02-28T15:10:36;4.20;;;2.30;;
67819;SDS011;54618;52.018;5.576;2023-02-28T15:13:05;3.95;;;2.33;;
67819;SDS011;54618;52.018;5.576;2023-02-28T15:18:30;3.83;;;2.20;;
67819;SDS011;54618;52.018;5.576;2023-02-28T15:21:05;4.43;;;2.33;;
67819;SDS011;54618;52.018;5.576;2023-02-28T15:23:35;4.50;;;2.25;;
67819;SDS011;54618;52.018;5.576;2023-02-28T15:26:02;3.65;;;2.10;;
67819;SDS011;54618;52.018;5.576;2023-02-28T15:28:29;4.50;;;2.40;;
67819;SDS011;54618;52.018;5.576;2023-02-28T15:33:26;3.93;;;1.97;;
67819;SDS011;54618;52.018;5.576;2023-02-28T15:36:06;4.13;;;2.17;;
67819;SDS011;54618;52.018;5.576;2023-02-28T15:38:42;3.67;;;2.10;;
67819;SDS011;54618;52.018;5.576;2023-02-28T15:41:21;4.18;;;2.10;;
67819;SDS011;54618;52.018;5.576;2023-02-28T15:43:57;4.15;;;1.90;;
67819;SDS011;54618;52.018;5.576;2023-02-28T15:46:41;3.45;;;1.88;;
67819;SDS011;54618;52.018;5.576;2023-02-28T15:49:17;4.20;;;2.03;;
67819;SDS011;54618;52.018;5.576;2023-02-28T15:51:45;3.30;;;1.90;;
67819;SDS011;54618;52.018;5.576;2023-02-28T15:54:15;4.35;;;2.03;;
67819;SDS011;54618;52.018;5.576;2023-02-28T15:56:46;3.33;;;1.85;;
67819;SDS011;54618;52.018;5.576;2023-02-28T15:59:20;4.70;;;2.10;;
67819;SDS011;54618;52.018;5.576;2023-02-28T16:02:37;3.13;;;1.90;;
67819;SDS011;54618;52.018;5.576;2023-02-28T16:04:37;3.35;;;1.92;;
67819;SDS011;54618;52.018;5.576;2023-02-28T16:07:18;3.45;;;1.80;;
67819;SDS011;54618;52.018;5.576;2023-02-28T16:09:44;2.55;;;1.50;;
67819;SDS011;54618;52.018;5.576;2023-02-28T16:12:09;3.15;;;1.63;;
67819;SDS011;54618;52.018;5.576;2023-02-28T16:14:38;3.40;;;1.65;;
67819;SDS011;54618;52.018;5.576;2023-02-28T16:17:04;3.45;;;1.90;;
67819;SDS011;54618;52.018;5.576;2023-02-28T16:19:41;3.15;;;1.77;;
67819;SDS011;54618;52.018;5.576;2023-02-28T16:22:07;3.67;;;1.60;;
67819;SDS011;54618;52.018;5.576;2023-02-28T16:24:34;3.33;;;1.80;;
67819;SDS011;54618;52.018;5.576;2023-02-28T16:27:00;3.58;;;1.50;;
67819;SDS011;54618;52.018;5.576;2023-02-28T16:29:30;4.65;;;1.80;;
67819;SDS011;54618;52.018;5.576;2023-02-28T16:31:57;3.33;;;1.67;;
67819;SDS011;54618;52.018;5.576;2023-02-28T16:34:24;3.97;;;1.70;;
67819;SDS011;54618;52.018;5.576;2023-02-28T16:36:50;3.15;;;1.40;;
67819;SDS011;54618;52.018;5.576;2023-02-28T16:39:16;2.90;;;1.40;;
67819;SDS011;54618;52.018;5.576;2023-02-28T16:41:42;2.80;;;1.60;;
67819;SDS011;54618;52.018;5.576;2023-02-28T16:44:10;2.72;;;1.40;;
67819;SDS011;54618;52.018;5.576;2023-02-28T16:46:43;2.78;;;1.50;;
67819;SDS011;54618;52.018;5.576;2023-02-28T16:49:10;3.88;;;1.25;;
67819;SDS011;54618;52.018;5.576;2023-02-28T16:51:37;4.05;;;1.60;;
67819;SDS011;54618;52.018;5.576;2023-02-28T16:54:03;2.80;;;1.40;;
67819;SDS011;54618;52.018;5.576;2023-02-28T16:56:28;3.70;;;1.45;;
67819;SDS011;54618;52.018;5.576;2023-02-28T16:58:55;2.90;;;1.38;;
67819;SDS011;54618;52.018;5.576;2023-02-28T17:01:24;4.47;;;1.45;;
67819;SDS011;54618;52.018;5.576;2023-02-28T17:03:52;2.58;;;1.35;;
67819;SDS011;54618;52.018;5.576;2023-02-28T17:06:19;2.60;;;1.30;;
67819;SDS011;54618;52.018;5.576;2023-02-28T17:08:47;3.63;;;1.40;;
67819;SDS011;54618;52.018;5.576;2023-02-28T17:11:13;2.20;;;1.30;;
67819;SDS011;54618;52.018;5.576;2023-02-28T17:13:39;3.05;;;1.35;;
67819;SDS011;54618;52.018;5.576;2023-02-28T17:16:04;2.95;;;1.35;;
67819;SDS011;54618;52.018;5.576;2023-02-28T17:18:30;3.03;;;1.67;;
67819;SDS011;54618;52.018;5.576;2023-02-28T17:20:59;2.40;;;1.33;;